Time;durP1;ratioP1;P1;durP2;ratioP2;P2;SDS_P1;SDS_P2;PMS_P1;PMS_P2;Temp;Humidity;BMP_temperature;BMP_pressure;BME280_temperature;BME280_humidity;BME280_pressure;Samples;Min_cycle;Max_cycle;Signal;HPM_P1;HPM_P2
2021/03/31 00:00:51;;;;;;;10.25;5.88;;;;;;;9.14;56.71;96372.75;4988717;28;20050;-64
2021/03/31 00:03:21;;;;;;;7.05;5.13;;;;;;;9.14;57.22;96377.28;4976186;28;20042;-64
2021/03/31 00:05:46;;;;;;;8.93;5.28;;;;;;;9.09;56.90;96367.44;4969469;28;20058;-63
2021/03/31 00:08:12;;;;;;;7.95;6.00;;;;;;;9.06;57.31;96370.63;4984033;28;20529;-64
2021/03/31 00:10:49;;;;;;;12.50;5.90;;;;;;;8.89;57.56;96346.97;4971323;28;20049;-63
2021/03/31 00:13:16;;;;;;;10.63;6.00;;;;;;;8.96;57.72;96363.47;4989083;28;20047;-64
2021/03/31 00:15:41;;;;;;;8.07;5.35;;;;;;;8.79;57.64;96342.44;4972896;28;20647;-64
2021/03/31 00:18:12;;;;;;;8.98;5.55;;;;;;;8.71;58.12;96344.84;4979124;28;20046;-64
2021/03/31 00:20:39;;;;;;;7.70;5.63;;;;;;;8.67;58.76;96339.25;4981280;28;20038;-64
2021/03/31 00:23:09;;;;;;;7.72;5.68;;;;;;;8.66;58.74;96350.91;4969164;28;20035;-63
2021/03/31 00:25:35;;;;;;;8.32;5.45;;;;;;;8.54;58.98;96334.44;4971263;28;20026;-64
2021/03/31 00:28:01;;;;;;;8.32;6.50;;;;;;;8.67;59.07;96357.03;5002444;28;20038;-64
2021/03/31 00:30:27;;;;;;;10.50;6.10;;;;;;;8.54;58.59;96334.44;4974881;28;20130;-63
2021/03/31 00:32:52;;;;;;;10.90;5.65;;;;;;;8.43;58.61;96320.34;4969052;28;20042;-64
2021/03/31 00:35:18;;;;;;;7.22;5.40;;;;;;;8.37;59.05;96318.75;4972606;28;20062;-64
2021/03/31 00:37:43;;;;;;;10.70;5.20;;;;;;;8.41;58.84;96324.34;4988398;28;20353;-64
2021/03/31 00:40:15;;;;;;;8.48;5.53;;;;;;;8.52;59.25;96347.16;4970866;28;20050;-65
2021/03/31 00:42:42;;;;;;;10.02;5.10;;;;;;;8.48;58.99;96336.28;4968929;28;20042;-63
2021/03/31 00:45:09;;;;;;;12.00;5.65;;;;;;;8.41;59.11;96335.72;4971478;28;20037;-64
2021/03/31 00:47:35;;;;;;;8.23;5.78;;;;;;;8.30;58.82;96313.66;4972376;28;20057;-64
2021/03/31 00:50:00;;;;;;;12.32;5.43;;;;;;;7.97;59.31;96271.66;4987329;28;20035;-64
2021/03/31 00:52:26;;;;;;;7.60;5.55;;;;;;;8.25;59.27;96315.50;4989190;28;20559;-63
2021/03/31 00:54:51;;;;;;;7.03;5.30;;;;;;;8.36;59.62;96338.38;4972344;28;20035;-64
2021/03/31 00:57:17;;;;;;;8.43;5.28;;;;;;;8.34;59.33;96332.47;4980315;28;20051;-64
2021/03/31 00:59:43;;;;;;;8.73;5.60;;;;;;;8.27;59.71;96324.78;4979193;28;20660;-64
2021/03/31 01:02:09;;;;;;;7.90;5.30;;;;;;;8.21;59.55;96320.53;4991492;28;20041;-63
2021/03/31 01:04:34;;;;;;;7.40;5.78;;;;;;;8.34;59.54;96343.09;4993651;28;20022;-64
2021/03/31 01:06:59;;;;;;;6.82;5.55;;;;;;;8.01;59.62;96296.59;4973176;28;20399;-63
2021/03/31 01:09:25;;;;;;;7.75;5.28;;;;;;;7.76;59.84;96263.63;4972236;28;20085;-63
2021/03/31 01:12:19;;;;;;;10.30;5.85;;;;;;;7.90;60.30;96284.34;4986848;28;20050;-65
2021/03/31 01:15:12;;;;;;;12.05;6.47;;;;;;;8.11;59.84;96323.13;4979208;28;20108;-64
2021/03/31 01:17:55;;;;;;;16.27;6.82;;;;;;;8.10;59.99;96328.69;4998180;23;20058;-64
2021/03/31 01:20:47;;;;;;;10.40;6.28;;;;;;;8.05;60.20;96324.16;5006508;28;20038;-63
2021/03/31 01:23:12;;;;;;;;;;;;;;;8.01;60.18;96323.09;4990409;28;20038;-62
2021/03/31 01:26:26;;;;;;;12.88;5.95;;;;;;;7.97;60.86;96317.50;4993360;28;20456;-63
2021/03/31 01:28:54;;;;;;;10.18;5.93;;;;;;;7.94;60.13;96327.84;4987347;28;20101;-62
2021/03/31 01:31:19;;;;;;;10.57;5.95;;;;;;;7.92;61.21;96322.78;4973491;28;20031;-64
2021/03/31 01:34:09;;;;;;;10.02;6.18;;;;;;;7.88;61.10;96318.25;4988106;28;20096;-63
2021/03/31 01:36:35;;;;;;;10.02;5.78;;;;;;;7.80;60.69;96317.69;4991099;28;20049;-62
2021/03/31 01:39:04;;;;;;;8.35;5.40;;;;;;;7.81;60.91;96323.78;4990893;28;20042;-63
2021/03/31 01:41:32;;;;;;;9.25;5.32;;;;;;;7.68;61.06;96303.84;4990595;28;20126;-63
2021/03/31 01:43:59;;;;;;;6.72;5.57;;;;;;;7.69;61.09;96308.09;4989736;28;20034;-63
2021/03/31 01:46:27;;;;;;;5.63;4.40;;;;;;;7.68;61.38;96303.84;4992792;28;20109;-62
2021/03/31 01:48:55;;;;;;;5.97;5.07;;;;;;;7.53;61.07;96286.03;4990664;28;20030;-64
2021/03/31 01:51:22;;;;;;;8.13;4.65;;;;;;;7.65;61.17;96308.84;4990685;28;20039;-62
2021/03/31 01:53:48;;;;;;;9.82;4.65;;;;;;;7.65;61.08;96308.84;4989709;28;20125;-62
2021/03/31 01:56:15;;;;;;;9.23;4.60;;;;;;;7.67;61.41;96315.47;4990538;28;20030;-64
2021/03/31 01:58:42;;;;;;;11.07;5.05;;;;;;;7.54;61.30;96300.84;4992527;28;20026;-63
2021/03/31 02:01:09;;;;;;;8.60;4.60;;;;;;;7.62;61.29;96310.16;4990921;28;20038;-63
2021/03/31 02:03:36;;;;;;;7.13;5.03;;;;;;;7.52;61.34;96295.03;4990452;28;20050;-62
2021/03/31 02:06:03;;;;;;;5.28;4.50;;;;;;;7.62;61.59;96304.84;4990661;28;20676;-62
2021/03/31 02:08:29;;;;;;;6.53;4.80;;;;;;;7.56;61.77;96305.88;4990356;28;20109;-63
2021/03/31 02:10:56;;;;;;;8.18;4.43;;;;;;;7.58;61.42;96316.25;4989112;28;20022;-63
2021/03/31 02:13:22;;;;;;;5.57;4.53;;;;;;;7.49;61.39;96292.09;4990895;28;20477;-62
2021/03/31 02:15:50;;;;;;;11.30;6.25;;;;;;;7.42;61.03;96284.38;4990452;28;20053;-62
2021/03/31 02:18:18;;;;;;;12.85;5.35;;;;;;;7.51;61.10;96300.56;4988746;28;20078;-62
2021/03/31 02:20:51;;;;;;;11.75;4.65;;;;;;;7.41;61.86;96290.69;4988820;28;20053;-63
2021/03/31 02:23:18;;;;;;;5.97;4.55;;;;;;;7.48;61.51;96306.38;4990213;28;20047;-63
2021/03/31 02:25:47;;;;;;;6.60;4.70;;;;;;;7.36;61.38;96281.94;4992191;28;20093;-62
2021/03/31 02:28:13;;;;;;;7.78;4.70;;;;;;;7.29;61.39;96275.03;4990460;28;20133;-62
2021/03/31 02:30:38;;;;;;;5.55;4.20;;;;;;;7.29;61.44;96271.59;4990204;28;20118;-62
2021/03/31 02:33:07;;;;;;;6.07;4.35;;;;;;;7.43;62.13;96299.22;4989846;28;20465;-61
2021/03/31 02:35:33;;;;;;;6.43;4.07;;;;;;;7.26;61.75;96278.16;4990192;28;20045;-64
2021/03/31 02:38:02;;;;;;;9.38;4.63;;;;;;;7.38;61.26;96290.44;4989818;28;20089;-64
2021/03/31 02:40:29;;;;;;;8.20;4.35;;;;;;;7.21;61.37;96275.47;4989217;28;20026;-62
2021/03/31 02:42:57;;;;;;;4.88;4.00;;;;;;;7.33;62.24;96298.34;4988851;28;20074;-62
2021/03/31 02:45:25;;;;;;;9.68;4.50;;;;;;;7.15;62.18;96268.56;4989879;28;20031;-62
2021/03/31 02:47:52;;;;;;;7.40;4.00;;;;;;;7.22;61.89;96284.25;4989614;28;20030;-63
2021/03/31 02:50:20;;;;;;;8.75;3.92;;;;;;;7.12;62.48;96270.94;4988344;28;20123;-63
2021/03/31 02:52:48;;;;;;;10.60;4.10;;;;;;;7.19;61.79;96280.25;4989529;28;20499;-62
2021/03/31 02:55:15;;;;;;;10.65;4.95;;;;;;;6.99;62.27;96258.94;4991646;28;20026;-63
2021/03/31 02:57:41;;;;;;;6.18;3.72;;;;;;;7.19;61.86;96288.19;4988192;28;20515;-63
2021/03/31 03:00:10;;;;;;;7.22;3.65;;;;;;;7.18;62.26;96288.44;4988253;28;20042;-63
2021/03/31 03:02:36;;;;;;;6.85;3.95;;;;;;;6.79;62.14;96233.13;4988002;28;20046;-62
2021/03/31 03:05:03;;;;;;;7.15;3.90;;;;;;;7.00;62.74;96269.25;4989653;28;20023;-62
2021/03/31 03:07:28;;;;;;;6.65;3.70;;;;;;;6.72;61.98;96225.41;4990496;28;20089;-63
2021/03/31 03:09:54;;;;;;;6.53;3.83;;;;;;;6.89;62.72;96250.91;4970739;28;20043;-62
2021/03/31 03:12:20;;;;;;;5.18;3.60;;;;;;;7.06;62.72;96280.66;4982740;28;20459;-62
2021/03/31 03:14:48;;;;;;;6.60;3.47;;;;;;;7.01;62.25;96277.97;4989655;28;20080;-63
2021/03/31 03:17:15;;;;;;;6.07;3.50;;;;;;;6.94;61.92;96266.81;4987951;28;20039;-62
2021/03/31 03:19:41;;;;;;;4.90;2.65;;;;;;;6.91;62.21;96270.78;4991052;28;20069;-62
2021/03/31 03:22:07;;;;;;;4.28;3.05;;;;;;;6.97;62.44;96275.06;4987677;28;20046;-62
2021/03/31 03:24:33;;;;;;;5.25;3.72;;;;;;;6.82;62.18;96259.06;4989305;28;20077;-64
2021/03/31 03:27:00;;;;;;;5.40;3.22;;;;;;;6.77;62.04;96257.19;4989078;28;20045;-63
2021/03/31 03:29:26;;;;;;;9.23;3.58;;;;;;;6.90;62.67;96282.41;4989131;28;20038;-62
2021/03/31 03:31:53;;;;;;;10.77;3.10;;;;;;;6.83;62.72;96271.25;4988940;28;20588;-63
2021/03/31 03:34:19;;;;;;;9.27;3.78;;;;;;;6.57;62.23;96229.78;4990152;28;20085;-62
2021/03/31 03:36:45;;;;;;;7.03;3.58;;;;;;;6.64;62.33;96252.28;4989021;28;20038;-62
2021/03/31 03:39:11;;;;;;;19.63;5.05;;;;;;;6.75;63.17;96261.91;4989211;28;20162;-63
2021/03/31 03:41:36;;;;;;;16.25;3.92;;;;;;;6.77;62.95;96282.81;4988666;28;20057;-63
2021/03/31 03:44:03;;;;;;;11.05;3.72;;;;;;;6.57;63.51;96237.69;4989334;28;20023;-62
2021/03/31 03:46:32;;;;;;;13.57;3.90;;;;;;;6.74;62.80;96270.09;4989755;28;20030;-64
2021/03/31 03:48:59;;;;;;;9.35;3.60;;;;;;;6.76;63.21;96275.94;4987501;28;20105;-63
2021/03/31 03:51:25;;;;;;;10.07;4.25;;;;;;;6.75;62.93;96275.13;4988545;28;20500;-62
2021/03/31 03:53:52;;;;;;;8.27;4.03;;;;;;;6.65;63.07;96267.09;4988770;28;20061;-62
2021/03/31 03:56:18;;;;;;;8.30;3.75;;;;;;;6.57;63.04;96254.34;4988885;28;20416;-61
2021/03/31 03:58:43;;;;;;;14.82;3.63;;;;;;;6.58;63.68;96263.09;4988912;28;20084;-63
2021/03/31 04:01:09;;;;;;;8.30;3.88;;;;;;;6.57;63.91;96256.22;4990730;28;20026;-62
2021/03/31 04:03:34;;;;;;;10.07;3.83;;;;;;;6.64;63.70;96270.81;4987612;28;20606;-62
2021/03/31 04:06:00;;;;;;;4.07;3.45;;;;;;;6.64;63.61;96275.28;4988874;28;20093;-63
2021/03/31 04:08:25;;;;;;;4.60;3.13;;;;;;;6.68;63.63;96279.03;4988912;28;20045;-62
2021/03/31 04:10:53;;;;;;;5.97;3.33;;;;;;;6.56;63.62;96262.56;4988965;28;20027;-64
2021/03/31 04:13:20;;;;;;;7.10;3.60;;;;;;;6.50;63.61;96251.13;4990819;28;20030;-63
2021/03/31 04:15:47;;;;;;;8.23;3.28;;;;;;;6.70;63.53;96280.38;4988845;28;20094;-64
2021/03/31 04:18:16;;;;;;;6.20;3.67;;;;;;;6.65;63.56;96258.38;4989609;28;20038;-63
2021/03/31 04:20:43;;;;;;;11.52;3.30;;;;;;;6.65;63.54;96261.81;4992570;28;20031;-62
2021/03/31 04:23:08;;;;;;;12.45;3.67;;;;;;;6.35;63.82;96198.94;4991087;28;20069;-62
2021/03/31 04:25:34;;;;;;;4.05;3.35;;;;;;;6.77;64.01;96259.81;4994628;28;20030;-61
2021/03/31 04:28:04;;;;;;;5.22;2.90;;;;;;;6.81;63.54;96268.06;4991967;28;20120;-66
2021/03/31 04:30:30;;;;;;;4.63;3.53;;;;;;;6.68;63.66;96242.03;4992342;28;20068;-66
2021/03/31 04:32:56;;;;;;;4.85;2.80;;;;;;;6.83;63.35;96267.78;4992312;28;20494;-64
2021/03/31 04:35:22;;;;;;;3.47;2.88;;;;;;;6.83;63.70;96267.78;4992393;28;20069;-63
2021/03/31 04:37:48;;;;;;;4.97;2.97;;;;;;;6.85;63.21;96263.03;4992145;28;20030;-65
2021/03/31 04:40:16;;;;;;;10.10;3.33;;;;;;;6.83;63.81;96257.22;4994035;28;20023;-62
2021/03/31 04:42:42;;;;;;;4.85;2.45;;;;;;;6.88;63.69;96265.19;4990702;28;20096;-64
2021/03/31 04:45:10;;;;;;;4.35;2.88;;;;;;;6.66;63.20;96225.63;4992143;28;20042;-65
2021/03/31 04:47:37;;;;;;;19.80;4.13;;;;;;;6.86;63.17;96259.34;4991779;28;20045;-67
2021/03/31 04:50:05;;;;;;;6.28;2.95;;;;;;;6.84;62.89;96254.31;4991665;28;20058;-63
2021/03/31 04:52:31;;;;;;;7.35;3.20;;;;;;;6.88;62.78;96259.91;4993534;28;20503;-64
2021/03/31 04:54:56;;;;;;;7.20;3.53;;;;;;;6.81;62.41;96254.00;4991820;28;20043;-62
2021/03/31 04:57:22;;;;;;;6.15;2.97;;;;;;;6.74;62.69;96228.59;4991655;28;20093;-64
2021/03/31 04:59:47;;;;;;;7.65;2.70;;;;;;;6.88;62.50;96255.41;4991694;28;20027;-65
2021/03/31 05:02:13;;;;;;;12.32;3.40;;;;;;;6.90;62.16;96252.50;4991613;28;20034;-63
2021/03/31 05:04:38;;;;;;;4.25;3.08;;;;;;;6.82;62.44;96239.75;4993599;28;20049;-64
2021/03/31 05:07:04;;;;;;;8.32;3.03;;;;;;;6.90;62.40;96255.16;4990281;28;20062;-64
2021/03/31 05:09:30;;;;;;;11.48;3.80;;;;;;;6.85;62.62;96252.47;4990242;28;20401;-65
2021/03/31 05:11:55;;;;;;;13.55;3.70;;;;;;;6.83;62.55;96244.78;4991277;28;20415;-64
2021/03/31 05:14:21;;;;;;;7.25;3.72;;;;;;;7.03;62.24;96271.41;4991347;28;20038;-62
2021/03/31 05:16:47;;;;;;;6.50;3.10;;;;;;;6.82;62.21;96240.56;4991327;28;20033;-62
2021/03/31 05:19:12;;;;;;;12.85;3.45;;;;;;;6.99;62.14;96256.28;4993054;28;20058;-61
2021/03/31 05:21:38;;;;;;;9.25;3.72;;;;;;;7.10;62.13;96260.59;4991055;28;20053;-61
2021/03/31 05:24:04;;;;;;;6.78;3.20;;;;;;;7.19;61.99;96272.31;4991289;28;20386;-62
2021/03/31 05:26:30;;;;;;;24.58;4.15;;;;;;;7.14;61.71;96243.16;4991163;28;20038;-62
2021/03/31 05:28:55;;;;;;;18.23;3.40;;;;;;;7.28;61.65;96257.56;4991097;28;20084;-62
2021/03/31 05:31:21;;;;;;;12.82;3.28;;;;;;;7.23;61.08;96241.63;4990780;28;20381;-62
2021/03/31 05:33:46;;;;;;;9.80;3.08;;;;;;;7.41;61.21;96255.50;4991117;28;20045;-62
2021/03/31 05:36:11;;;;;;;14.63;3.22;;;;;;;7.37;61.48;96230.59;4991055;28;20061;-62
2021/03/31 05:38:37;;;;;;;6.13;2.67;;;;;;;7.49;60.87;96247.09;4990881;28;20446;-62
2021/03/31 05:41:03;;;;;;;4.50;2.75;;;;;;;7.56;60.45;96239.69;4990897;28;20065;-62
2021/03/31 05:43:29;;;;;;;9.27;3.03;;;;;;;7.75;60.86;96264.69;4992789;28;20121;-65
2021/03/31 05:45:55;;;;;;;5.40;2.85;;;;;;;7.41;60.66;96200.69;4990700;28;20042;-71
2021/03/31 05:48:21;;;;;;;10.05;3.40;;;;;;;7.69;59.81;96239.25;4989185;28;20400;-70
2021/03/31 05:50:47;;;;;;;10.30;3.17;;;;;;;7.96;60.03;96267.41;4990794;28;20100;-69
2021/03/31 05:53:12;;;;;;;5.80;3.35;;;;;;;7.38;59.71;96174.78;4990733;28;20484;-68
2021/03/31 05:55:38;;;;;;;14.85;3.55;;;;;;;7.89;60.04;96222.63;4992713;28;20030;-67
2021/03/31 05:58:04;;;;;;;13.38;3.45;;;;;;;7.77;59.03;96196.34;4989574;28;20065;-67
2021/03/31 06:00:30;;;;;;;13.48;3.42;;;;;;;8.25;58.88;96257.19;4998959;28;20138;-66
2021/03/31 06:02:56;;;;;;;19.55;4.07;;;;;;;8.26;59.17;96248.97;4999512;28;20133;-66
2021/03/31 06:05:21;;;;;;;14.35;3.38;;;;;;;8.43;58.93;96258.56;4995549;28;20038;-67
2021/03/31 06:07:49;;;;;;;12.13;3.95;;;;;;;8.43;58.33;96242.66;5025152;28;20421;-66
2021/03/31 06:10:18;;;;;;;6.45;2.83;;;;;;;8.63;58.37;96255.94;5012033;28;20740;-66
2021/03/31 06:12:48;;;;;;;19.70;3.13;;;;;;;8.61;57.84;96236.06;5009730;28;20121;-67
2021/03/31 06:15:17;;;;;;;10.65;2.55;;;;;;;8.80;57.62;96245.91;5010017;28;20095;-67
2021/03/31 06:17:48;;;;;;;12.93;3.28;;;;;;;8.89;57.71;96245.34;5009626;28;20511;-67
2021/03/31 06:20:41;;;;;;;11.98;3.17;;;;;;;9.01;56.96;96248.56;5009620;28;20547;-67
2021/03/31 06:25:56;;;;;;;12.23;3.50;;;;;;;9.08;56.23;96218.00;5011862;28;20418;-67
2021/03/31 06:28:36;;;;;;;8.30;2.65;;;;;;;9.23;56.29;96230.47;5009982;28;20053;-65
2021/03/31 06:31:15;;;;;;;20.63;2.95;;;;;;;9.33;55.81;96224.34;5009680;28;20439;-66
2021/03/31 06:33:45;;;;;;;12.55;2.95;;;;;;;9.60;55.54;96235.41;5008611;28;20034;-66
2021/03/31 06:36:13;;;;;;;8.10;2.58;;;;;;;9.73;54.80;96243.91;5009829;28;20042;-66
2021/03/31 06:38:48;;;;;;;5.32;2.22;;;;;;;9.83;54.67;96241.22;5008065;28;20026;-65
2021/03/31 06:41:30;;;;;;;9.95;2.47;;;;;;;9.98;54.43;96233.16;5009506;28;20088;-66
2021/03/31 06:49:03;;;;;;;11.80;2.65;;;;;;;10.17;53.05;96201.41;5009015;28;20038;-66
2021/03/31 06:51:31;;;;;;;9.77;2.65;;;;;;;10.23;52.13;96216.28;5008985;28;20104;-65
2021/03/31 06:54:22;;;;;;;8.77;2.55;;;;;;;10.37;50.73;96205.84;5009371;28;20034;-65
2021/03/31 06:56:57;;;;;;;12.18;2.72;;;;;;;10.69;50.99;96218.66;5009132;28;20042;-66
2021/03/31 06:59:32;;;;;;;9.20;2.00;;;;;;;10.93;50.65;96232.84;5009129;28;20084;-66
2021/03/31 07:01:59;;;;;;;3.55;1.95;;;;;;;10.87;49.39;96209.22;5008694;28;20025;-66
2021/03/31 07:04:26;;;;;;;8.70;1.90;;;;;;;11.23;49.35;96238.19;5009762;28;20116;-65
2021/03/31 07:07:09;;;;;;;7.22;2.28;;;;;;;11.37;48.85;96229.25;5008918;28;20530;-67
2021/03/31 07:09:38;;;;;;;6.72;2.78;;;;;;;11.57;48.79;96235.47;5008870;28;20447;-66
2021/03/31 07:12:35;;;;;;;5.45;2.42;;;;;;;11.77;48.54;96229.88;5006987;28;20125;-67
2021/03/31 07:15:01;;;;;;;4.57;1.70;;;;;;;11.82;48.42;96213.84;5007475;28;20034;-66
2021/03/31 07:17:27;;;;;;;4.10;1.63;;;;;;;11.85;48.50;96201.84;5023694;28;20076;-65
2021/03/31 07:19:53;;;;;;;6.28;1.90;;;;;;;11.97;47.12;96235.00;5008754;28;20030;-67
2021/03/31 07:22:19;;;;;;;7.47;1.83;;;;;;;12.04;47.29;96213.34;5009292;28;20033;-67
2021/03/31 07:24:45;;;;;;;6.07;1.90;;;;;;;11.88;47.11;96218.06;5009009;28;20038;-66
2021/03/31 07:27:15;;;;;;;4.32;2.42;;;;;;;12.15;46.91;96222.00;5008662;28;20447;-65
2021/03/31 07:30:05;;;;;;;5.75;2.00;;;;;;;12.23;46.54;96230.16;5007464;28;20670;-65
2021/03/31 07:32:33;;;;;;;11.10;2.55;;;;;;;12.48;45.19;96233.53;5007819;28;20042;-66
2021/03/31 07:35:02;;;;;;;9.10;2.70;;;;;;;12.48;44.70;96204.97;5008647;28;20056;-64
2021/03/31 07:37:30;;;;;;;7.35;2.00;;;;;;;12.37;44.86;96218.75;5008935;28;20030;-63
2021/03/31 07:39:58;;;;;;;6.72;2.03;;;;;;;12.93;44.75;96224.03;5008005;28;20173;-62
2021/03/31 07:42:25;;;;;;;4.32;1.83;;;;;;;13.23;44.36;96216.63;5007276;28;20042;-62
2021/03/31 07:44:51;;;;;;;5.97;1.75;;;;;;;13.26;42.97;96206.16;5008816;28;20739;-64
2021/03/31 07:47:18;;;;;;;3.17;1.83;;;;;;;13.59;43.52;96222.13;5006757;28;20054;-62
2021/03/31 07:49:44;;;;;;;5.78;1.98;;;;;;;13.73;43.62;96228.28;5006887;28;20562;-63
2021/03/31 07:52:09;;;;;;;8.95;2.13;;;;;;;13.76;42.82;96218.84;5010148;28;20128;-63
2021/03/31 07:54:34;;;;;;;7.47;2.00;;;;;;;13.75;42.42;96204.69;5010130;28;20666;-63
2021/03/31 07:57:23;;;;;;;6.57;1.98;;;;;;;14.05;41.84;96219.34;5011899;28;20048;-64
2021/03/31 07:59:48;;;;;;;6.22;2.63;;;;;;;13.24;41.18;96148.75;5010752;28;20108;-64
2021/03/31 08:02:15;;;;;;;6.53;2.15;;;;;;;14.05;41.28;96213.19;5010878;28;20476;-65
2021/03/31 08:04:41;;;;;;;4.20;2.15;;;;;;;14.36;41.24;96199.16;5014131;28;20428;-67
2021/03/31 08:07:20;;;;;;;9.88;2.83;;;;;;;14.49;40.67;96220.56;5012058;28;20046;-63
2021/03/31 08:09:45;;;;;;;5.45;2.55;;;;;;;14.29;41.28;96207.59;5012157;28;20185;-66
2021/03/31 08:12:12;;;;;;;11.60;3.67;;;;;;;14.08;41.76;96199.22;5011855;28;20571;-64
2021/03/31 08:14:42;;;;;;;6.70;2.40;;;;;;;13.84;42.14;96198.66;5002711;28;20038;-64
2021/03/31 08:17:13;;;;;;;12.60;2.95;;;;;;;13.97;41.61;96219.22;4990633;28;20046;-66
2021/03/31 08:19:42;;;;;;;8.13;2.50;;;;;;;13.99;41.17;96217.06;4994029;28;20109;-65
2021/03/31 08:22:30;;;;;;;6.70;3.17;;;;;;;14.26;40.49;96218.91;4991843;28;20046;-66
2021/03/31 08:24:58;;;;;;;7.10;2.65;;;;;;;14.18;40.36;96195.56;4992298;28;20073;-64
2021/03/31 08:27:25;;;;;;;7.10;2.83;;;;;;;14.08;40.44;96217.16;4991868;28;20403;-64
2021/03/31 08:29:57;;;;;;;6.10;3.22;;;;;;;14.08;40.78;96201.13;4991997;28;20444;-66
2021/03/31 08:32:25;;;;;;;6.22;3.10;;;;;;;14.60;39.82;96194.34;5006996;28;20417;-65
2021/03/31 08:34:52;;;;;;;7.35;2.85;;;;;;;14.43;39.62;96180.78;4992171;28;20069;-65
2021/03/31 08:37:24;;;;;;;4.72;2.25;;;;;;;14.97;38.96;96187.84;5008775;28;20022;-64
2021/03/31 08:39:50;;;;;;;8.52;2.60;;;;;;;15.04;39.23;96203.47;4991819;28;20030;-65
2021/03/31 08:42:15;;;;;;;11.18;2.47;;;;;;;15.00;37.67;96214.03;4991507;28;20046;-65
2021/03/31 08:44:48;;;;;;;5.32;2.80;;;;;;;15.00;38.17;96199.84;4991861;28;20457;-65
2021/03/31 08:47:20;;;;;;;10.43;2.80;;;;;;;15.33;37.65;96198.44;4990507;28;20125;-64
2021/03/31 08:49:48;;;;;;;3.05;2.10;;;;;;;15.45;37.17;96199.75;4992091;28;20065;-67
2021/03/31 08:52:16;;;;;;;6.40;2.00;;;;;;;15.84;36.96;96199.78;4993513;28;20022;-66
2021/03/31 08:54:53;;;;;;;4.78;1.98;;;;;;;15.54;36.88;96195.22;4991809;28;20434;-65
2021/03/31 08:57:27;;;;;;;6.63;2.25;;;;;;;15.73;36.32;96178.91;4991441;28;20038;-64
2021/03/31 08:59:58;;;;;;;5.70;1.88;;;;;;;15.42;36.73;96195.81;4991703;28;20122;-65
2021/03/31 09:02:26;;;;;;;4.87;1.83;;;;;;;15.54;35.83;96155.78;4991489;28;20038;-65
2021/03/31 09:04:52;;;;;;;7.65;1.92;;;;;;;15.73;36.19;96155.56;4989148;28;20686;-66
2021/03/31 09:07:18;;;;;;;4.28;1.85;;;;;;;15.96;35.83;96166.19;4993257;28;20033;-66
2021/03/31 09:09:45;;;;;;;7.13;2.47;;;;;;;16.08;35.51;96158.31;4991448;28;20038;-65
2021/03/31 09:12:12;;;;;;;10.05;1.95;;;;;;;16.10;35.16;96161.47;4990784;28;20046;-64
2021/03/31 09:14:43;;;;;;;6.78;2.10;;;;;;;16.33;35.19;96146.81;4990936;28;20037;-65
2021/03/31 09:17:18;;;;;;;4.18;1.90;;;;;;;16.82;34.96;96178.88;4989799;28;20035;-64
2021/03/31 09:19:44;;;;;;;8.38;2.08;;;;;;;16.89;34.39;96157.72;4993072;28;20030;-67
2021/03/31 09:22:12;;;;;;;4.28;2.10;;;;;;;17.27;34.06;96159.66;4991607;28;20041;-66
2021/03/31 09:24:40;;;;;;;4.20;2.65;;;;;;;17.00;33.98;96158.94;4990161;28;20034;-66
2021/03/31 09:27:08;;;;;;;5.10;2.45;;;;;;;17.37;33.62;96168.16;4989933;28;20038;-63
2021/03/31 09:29:36;;;;;;;9.88;2.35;;;;;;;17.48;33.67;96167.81;5006198;28;20396;-60
2021/03/31 09:32:04;;;;;;;7.07;2.53;;;;;;;17.42;33.90;96159.13;4990946;28;20100;-66
2021/03/31 09:34:30;;;;;;;8.65;2.45;;;;;;;17.50;33.93;96166.34;4992941;28;20698;-61
2021/03/31 09:37:04;;;;;;;4.47;2.58;;;;;;;17.84;33.69;96164.66;4990670;28;20034;-64
2021/03/31 09:39:41;;;;;;;5.97;2.45;;;;;;;17.76;33.53;96160.91;4991049;28;20142;-64
2021/03/31 09:42:08;;;;;;;7.00;2.50;;;;;;;18.05;33.57;96157.41;4990688;28;20046;-63
2021/03/31 09:44:33;;;;;;;8.20;3.42;;;;;;;17.55;34.24;96171.56;4991079;28;20030;-63
2021/03/31 09:47:00;;;;;;;9.57;3.33;;;;;;;17.80;33.81;96147.56;4990919;28;20160;-66
2021/03/31 09:49:26;;;;;;;4.13;2.58;;;;;;;17.58;33.76;96165.53;4991491;28;20176;-63
2021/03/31 09:51:52;;;;;;;7.97;2.88;;;;;;;17.62;34.13;96147.66;4990687;28;20051;-62
2021/03/31 09:54:18;;;;;;;7.05;3.08;;;;;;;18.30;34.38;96152.97;4990933;28;20038;-62
2021/03/31 09:56:44;;;;;;;8.60;3.58;;;;;;;18.25;33.34;96133.50;4990661;28;20415;-63
2021/03/31 09:59:10;;;;;;;6.72;2.85;;;;;;;18.29;33.05;96137.13;4989094;28;20049;-65
2021/03/31 10:01:37;;;;;;;7.85;3.00;;;;;;;18.24;32.96;96151.59;4992187;28;20042;-61
2021/03/31 10:04:03;;;;;;;11.63;3.10;;;;;;;18.57;32.19;96130.06;4990814;28;20077;-64
2021/03/31 10:06:28;;;;;;;12.18;3.35;;;;;;;18.42;32.07;96123.38;4990903;28;20484;-80
2021/03/31 10:08:54;;;;;;;14.52;3.70;;;;;;;18.31;32.60;96140.28;4989096;28;20043;-64
2021/03/31 10:11:35;;;;;;;8.82;3.65;;;;;;;18.85;31.87;96134.94;4990387;28;20054;-63
2021/03/31 10:14:03;;;;;;;9.30;3.45;;;;;;;18.34;32.26;96131.53;4990563;28;20022;-64
2021/03/31 10:16:37;;;;;;;10.93;3.90;;;;;;;18.45;32.33;96122.72;4992090;28;20031;-63
2021/03/31 10:19:05;;;;;;;7.25;3.65;;;;;;;18.84;31.58;96098.31;4990091;28;20058;-65
2021/03/31 10:21:32;;;;;;;9.70;3.97;;;;;;;19.18;31.54;96124.88;4988190;28;20050;-65
2021/03/31 10:23:57;;;;;;;7.50;3.88;;;;;;;19.26;31.01;96117.81;4990185;28;20041;-62
2021/03/31 10:26:27;;;;;;;8.10;4.30;;;;;;;19.30;30.53;96117.94;5004971;28;20117;-62
2021/03/31 10:28:56;;;;;;;6.30;4.07;;;;;;;19.14;30.35;96113.22;4989697;28;20062;-62
2021/03/31 10:31:34;;;;;;;10.77;4.70;;;;;;;19.52;29.97;96098.63;4989434;28;20018;-65
2021/03/31 10:34:00;;;;;;;7.88;4.32;;;;;;;19.29;29.69;96102.88;4996741;28;20042;-66
2021/03/31 10:47:13;;;;;;;9.77;5.25;;;;;;;18.98;29.60;96108.78;5009123;28;20040;-63
2021/03/31 10:49:53;;;;;;;6.43;4.72;;;;;;;19.14;29.77;96101.63;5011574;28;20447;-63
2021/03/31 10:52:24;;;;;;;8.15;4.75;;;;;;;19.37;29.75;96072.31;5010634;28;20116;-68
2021/03/31 10:54:49;;;;;;;9.02;4.88;;;;;;;19.44;30.13;96086.00;5010076;28;20197;-66
2021/03/31 10:57:15;;;;;;;7.53;5.35;;;;;;;19.11;29.76;96113.88;5009723;28;20532;-64
2021/03/31 10:59:41;;;;;;;9.35;5.00;;;;;;;19.53;29.23;96096.69;5010287;28;20088;-64
2021/03/31 11:02:07;;;;;;;10.63;5.10;;;;;;;19.79;30.27;96072.88;5010195;28;20030;-68
2021/03/31 11:04:32;;;;;;;8.57;4.70;;;;;;;19.82;30.49;96074.13;5012131;28;20025;-68
2021/03/31 11:06:58;;;;;;;12.73;5.97;;;;;;;19.82;28.31;96064.09;5010007;28;20369;-69
2021/03/31 11:09:24;;;;;;;7.93;5.28;;;;;;;20.34;30.14;96078.69;5008851;28;20046;-69
2021/03/31 11:11:50;;;;;;;6.68;4.90;;;;;;;20.14;28.73;96075.81;5009972;28;20369;-68
2021/03/31 11:14:19;;;;;;;10.32;5.38;;;;;;;19.90;29.16;96029.97;5008944;28;20049;-68
2021/03/31 11:16:58;;;;;;;8.45;5.88;;;;;;;19.94;28.56;96033.56;5010126;28;20026;-69
2021/03/31 11:20:15;;;;;;;8.43;5.50;;;;;;;20.37;28.37;96061.78;5011901;28;20056;-70
2021/03/31 11:27:36;;;;;;;6.47;5.30;;;;;;;20.24;27.95;96061.06;5009385;28;20045;-59
2021/03/31 11:30:03;;;;;;;7.88;5.82;;;;;;;20.48;29.22;96057.50;5010008;28;20038;-61
2021/03/31 11:32:29;;;;;;;10.70;5.90;;;;;;;20.66;27.07;96057.97;5009967;28;20042;-67
2021/03/31 11:34:54;;;;;;;6.57;5.90;;;;;;;20.54;27.26;96049.94;5010025;28;20034;-66
2021/03/31 11:37:19;;;;;;;9.15;6.53;;;;;;;20.19;27.91;96053.97;5011547;28;20026;-66
2021/03/31 11:39:45;;;;;;;7.13;6.30;;;;;;;20.41;27.52;96041.06;5009993;28;20181;-65
2021/03/31 11:42:10;;;;;;;8.10;6.53;;;;;;;20.12;28.20;96045.69;5009527;28;20149;-67
2021/03/31 11:44:35;;;;;;;9.13;6.20;;;;;;;20.39;27.73;96040.63;5009459;28;20419;-65
2021/03/31 11:47:01;;;;;;;20.60;7.95;;;;;;;20.03;28.96;96038.84;5009730;28;20506;-67
2021/03/31 11:49:27;;;;;;;11.68;6.68;;;;;;;19.85;28.30;96025.59;5011305;28;20472;-66
2021/03/31 11:51:52;;;;;;;11.55;7.00;;;;;;;19.85;28.28;95995.13;5009490;28;20042;-66
2021/03/31 11:54:17;;;;;;;12.27;6.20;;;;;;;20.13;28.81;96036.44;5008434;28;20033;-66
2021/03/31 11:56:43;;;;;;;11.07;7.20;;;;;;;20.14;28.96;96027.22;5008117;28;20049;-64
2021/03/31 11:59:08;;;;;;;11.68;6.95;;;;;;;20.45;28.17;96026.50;5009800;28;20484;-67
2021/03/31 12:01:35;;;;;;;9.73;6.90;;;;;;;20.41;27.99;96003.22;5011154;28;20033;-66
2021/03/31 12:04:00;;;;;;;10.10;6.53;;;;;;;20.57;28.31;96014.88;5009793;28;20040;-65
2021/03/31 12:06:25;;;;;;;11.60;7.18;;;;;;;20.24;28.52;96034.81;5009862;28;20030;-66